Time;durP1;ratioP1;P1;durP2;ratioP2;P2;SDS_P1;SDS_P2;PMS_P1;PMS_P2;Temp;Humidity;BMP_temperature;BMP_pressure;BME280_temperature;BME280_humidity;BME280_pressure;Samples;Min_cycle;Max_cycle;Signal;HPM_P1;HPM_P2
2022/04/16 00:03:05;;;;;;;12.05;5.85;;;9.70;99.90;;;;;;19878816;29;20147;-56
2022/04/16 00:13:08;;;;;;;10.13;4.00;;;9.50;99.90;;;;;;19878869;29;20119;-56
2022/04/16 00:23:10;;;;;;;6.38;3.38;;;9.50;99.90;;;;;;19833655;29;20123;-47
2022/04/16 00:33:13;;;;;;;8.13;3.30;;;9.40;99.90;;;;;;19802638;29;20568;-47
2022/04/16 00:43:28;;;;;;;8.48;3.70;;;9.10;99.90;;;;;;19821540;29;20076;-56
2022/04/16 00:53:30;;;;;;;8.57;3.20;;;9.30;99.90;;;;;;19810391;29;20059;-49
2022/04/16 01:03:33;;;;;;;10.13;3.20;;;9.40;99.90;;;;;;19785929;29;20075;-51
2022/04/16 01:13:37;;;;;;;3.97;2.35;;;9.20;99.90;;;;;;19851723;29;20131;-50
2022/04/16 01:23:40;;;;;;;4.13;2.05;;;8.80;99.90;;;;;;19855138;29;20038;-52
2022/04/16 01:33:42;;;;;;;2.78;1.65;;;8.60;99.90;;;;;;19873467;29;20043;-55
2022/04/16 01:43:44;;;;;;;3.83;1.95;;;8.30;99.90;;;;;;19858770;29;20461;-56
2022/04/16 01:53:48;;;;;;;5.38;1.88;;;8.00;99.90;;;;;;19838563;29;20096;-56
2022/04/16 02:03:51;;;;;;;4.15;2.00;;;8.00;99.90;;;;;;19838529;29;20422;-47
2022/04/16 02:13:53;;;;;;;3.15;1.52;;;8.00;99.90;;;;;;19871790;29;20127;-56
2022/04/16 02:23:57;;;;;;;3.85;1.65;;;8.00;99.80;;;;;;19851165;29;20070;-58
2022/04/16 02:33:59;;;;;;;5.13;1.55;;;8.10;98.60;;;;;;19822673;29;20047;-56
2022/04/16 02:44:02;;;;;;;4.85;1.95;;;8.10;99.00;;;;;;19821141;29;20112;-51
2022/04/16 02:54:06;;;;;;;2.15;1.00;;;8.00;98.20;;;;;;19844747;29;20104;-53
2022/04/16 03:04:08;;;;;;;2.33;1.27;;;8.20;97.10;;;;;;19852410;29;20144;-50
2022/04/16 03:24:31;;;;;;;;;;;8.20;95.90;;;;;;19823414;29;20120;-58
2022/04/16 03:34:33;;;;;;;2.53;1.17;;;8.30;96.00;;;;;;19811348;29;19916;-54
2022/04/16 03:44:37;;;;;;;2.33;1.13;;;8.30;95.90;;;;;;19853671;29;20035;-58
2022/04/16 04:05:02;;;;;;;7.88;1.40;;;8.50;94.60;;;;;;19860570;29;20136;-48
2022/04/16 04:15:05;;;;;;;3.55;1.23;;;8.10;94.70;;;;;;19829435;29;20051;-50
2022/04/16 04:25:08;;;;;;;3.65;1.15;;;8.00;95.00;;;;;;19834849;29;20503;-52
2022/04/16 04:35:11;;;;;;;2.97;1.20;;;7.70;95.30;;;;;;19846834;29;20426;-53
2022/04/16 04:45:15;;;;;;;4.32;1.20;;;7.50;95.00;;;;;;19863263;29;20066;-55
2022/04/16 04:55:17;;;;;;;3.35;1.40;;;7.70;94.80;;;;;;19846455;29;20104;-53
2022/04/16 05:05:21;;;;;;;2.90;1.13;;;7.60;94.90;;;;;;19800578;29;20078;-57
2022/04/16 05:15:23;;;;;;;2.28;1.13;;;7.40;95.80;;;;;;19800494;29;20048;-54
2022/04/16 05:25:26;;;;;;;5.10;1.20;;;7.60;95.00;;;;;;19799546;29;20151;-50
2022/04/16 05:35:28;;;;;;;2.45;1.05;;;8.00;93.90;;;;;;19868533;29;20046;-58
2022/04/16 05:45:31;;;;;;;3.03;0.77;;;8.30;93.30;;;;;;19827268;29;20104;-51
2022/04/16 05:55:34;;;;;;;3.00;1.00;;;8.50;92.70;;;;;;19863807;29;20115;-52
2022/04/16 06:05:37;;;;;;;1.98;0.80;;;8.60;93.10;;;;;;19864318;29;20051;-54
2022/04/16 06:15:41;;;;;;;3.17;1.10;;;9.00;92.30;;;;;;19835488;29;20176;-50
2022/04/16 06:25:43;;;;;;;6.63;1.00;;;9.80;89.80;;;;;;19868538;29;20488;-53
2022/04/16 06:35:46;;;;;;;1.52;0.85;;;10.40;87.00;;;;;;19851759;29;20111;-52
2022/04/16 06:45:49;;;;;;;2.50;0.98;;;11.50;85.10;;;;;;19821435;29;20441;-55
2022/04/16 06:55:51;;;;;;;1.83;1.05;;;12.40;79.40;;;;;;19844197;29;20047;-55
2022/04/16 07:05:54;;;;;;;1.45;0.82;;;12.90;77.70;;;;;;19819055;29;20109;-55
2022/04/16 07:15:57;;;;;;;1.70;0.90;;;13.00;76.50;;;;;;19808533;29;20043;-58
2022/04/16 07:25:59;;;;;;;1.25;0.70;;;13.20;75.40;;;;;;19815173;29;20099;-54
2022/04/16 07:36:02;;;;;;;1.85;0.35;;;13.10;73.20;;;;;;19848968;29;20073;-57
2022/04/16 07:46:04;;;;;;;1.25;0.60;;;13.40;72.70;;;;;;19806206;29;20128;-55
2022/04/16 07:56:07;;;;;;;4.13;0.75;;;13.80;71.20;;;;;;19870886;29;20058;-57
2022/04/16 08:06:10;;;;;;;1.58;0.60;;;13.90;67.20;;;;;;19868344;29;20047;-56
2022/04/16 08:16:13;;;;;;;3.80;0.70;;;14.20;69.20;;;;;;19805150;29;20043;-56
2022/04/16 08:26:16;;;;;;;2.63;0.60;;;14.40;63.90;;;;;;19810671;29;20457;-55
2022/04/16 08:36:19;;;;;;;0.95;0.52;;;14.50;65.50;;;;;;19832395;29;20570;-56
2022/04/16 08:46:22;;;;;;;3.20;0.93;;;14.90;62.20;;;;;;19809723;29;20484;-56
2022/04/16 08:56:25;;;;;;;1.48;0.60;;;15.90;71.60;;;;;;19838767;29;20115;-56
2022/04/16 09:06:29;;;;;;;1.98;1.00;;;16.30;73.00;;;;;;19875440;29;20043;-56
2022/04/16 09:16:32;;;;;;;3.38;1.55;;;16.60;67.20;;;;;;19852074;29;20035;-57
2022/04/16 09:26:39;;;;;;;2.33;1.65;;;16.80;77.20;;;;;;19831282;29;20501;-54
2022/04/16 09:36:44;;;;;;;2.65;1.90;;;17.50;74.40;;;;;;19828624;29;20565;-57
2022/04/16 09:46:49;;;;;;;5.63;4.25;;;18.20;75.80;;;;;;19802251;29;20047;-57
2022/04/16 09:56:54;;;;;;;6.90;4.32;;;18.40;82.60;;;;;;19816619;29;20078;-57
2022/04/16 10:06:57;;;;;;;7.47;5.50;;;17.10;86.70;;;;;;19872260;29;20046;-57
2022/04/16 10:17:14;;;;;;;5.97;4.47;;;15.80;91.70;;;;;;19827946;29;20503;-51
2022/04/16 10:27:31;;;;;;;8.40;4.18;;;14.60;92.90;;;;;;19852523;29;20195;-57
2022/04/16 10:37:39;;;;;;;8.63;4.53;;;14.10;96.00;;;;;;19870924;29;20178;-51
2022/04/16 10:47:42;;;;;;;6.07;3.95;;;14.30;95.50;;;;;;19840717;29;20135;-58
2022/04/16 10:58:03;;;;;;;6.20;3.70;;;14.20;95.40;;;;;;19878010;29;20062;-57
2022/04/16 11:08:10;;;;;;;6.35;3.58;;;14.00;95.40;;;;;;19826427;29;20067;-57
2022/04/16 11:18:15;;;;;;;5.32;3.55;;;13.90;96.50;;;;;;19808467;29;20123;-58
2022/04/16 11:38:49;;;;;;;9.82;4.15;;;15.80;94.80;;;;;;19817799;29;20054;-58
2022/04/16 11:48:52;;;;;;;5.72;4.05;;;15.50;94.30;;;;;;19818380;29;20044;-58
2022/04/16 11:58:54;;;;;;;6.32;3.88;;;14.30;95.90;;;;;;19819288;29;20581;-58
2022/04/16 12:09:01;;;;;;;5.13;3.70;;;14.00;97.80;;;;;;19842285;29;20071;-58
2022/04/16 12:19:04;;;;;;;6.00;4.05;;;14.40;96.20;;;;;;19878802;29;20430;-58
2022/04/16 12:29:09;;;;;;;5.95;4.10;;;13.70;96.40;;;;;;19862857;29;20126;-58
2022/04/16 12:39:12;;;;;;;9.57;4.75;;;12.60;97.00;;;;;;19877194;29;20286;-58
2022/04/16 12:49:19;;;;;;;6.18;4.30;;;11.70;99.10;;;;;;19876516;29;20070;-58
2022/04/16 12:59:22;;;;;;;7.57;4.35;;;11.00;99.90;;;;;;19814218;29;20515;-58
2022/04/16 13:09:26;;;;;;;6.15;4.38;;;10.90;99.90;;;;;;19815521;29;20426;-51
2022/04/16 13:19:29;;;;;;;5.78;3.83;;;10.50;99.90;;;;;;19874210;29;20356;-52
2022/04/16 13:29:35;;;;;;;5.30;4.40;;;11.00;99.90;;;;;;19853225;29;20465;-58
2022/04/16 13:50:00;;;;;;;4.38;3.38;;;12.60;99.90;;;;;;19842742;29;20076;-58
2022/04/16 14:00:05;;;;;;;8.30;3.35;;;12.40;99.90;;;;;;19828859;29;20124;-52
2022/04/16 14:10:15;;;;;;;4.43;3.22;;;12.20;99.90;;;;;;19797963;29;20124;-57
2022/04/16 14:20:19;;;;;;;3.65;2.72;;;12.70;99.90;;;;;;19805624;29;20070;-53
2022/04/16 14:30:22;;;;;;;4.22;2.53;;;13.20;99.50;;;;;;19810066;29;20043;-57
2022/04/16 14:40:26;;;;;;;4.38;2.88;;;13.20;98.20;;;;;;19841789;29;20047;-52
2022/04/16 14:50:31;;;;;;;4.18;2.75;;;13.20;97.50;;;;;;19859890;29;20173;-53
2022/04/16 15:00:35;;;;;;;3.47;2.78;;;12.60;98.60;;;;;;19845974;29;20063;-52
2022/04/16 15:10:39;;;;;;;3.67;2.90;;;12.50;99.70;;;;;;19853393;29;20038;-53
2022/04/16 15:20:42;;;;;;;3.30;2.42;;;12.40;98.80;;;;;;19882950;29;20092;-58
2022/04/16 15:30:48;;;;;;;6.30;2.47;;;12.20;99.80;;;;;;19877330;29;20046;-58
2022/04/16 15:40:59;;;;;;;4.45;2.78;;;11.60;99.90;;;;;;19813843;29;20108;-58
2022/04/16 15:51:03;;;;;;;3.00;1.95;;;11.50;99.90;;;;;;19831773;29;20128;-53
2022/04/16 16:01:06;;;;;;;3.20;2.20;;;11.50;99.90;;;;;;19869080;29;20055;-58
2022/04/16 16:11:12;;;;;;;2.92;2.00;;;11.40;98.70;;;;;;19831763;29;20558;-48
2022/04/16 16:21:15;;;;;;;2.50;1.70;;;10.80;99.50;;;;;;19804130;29;20039;-51
2022/04/16 16:31:21;;;;;;;3.08;1.90;;;10.50;99.90;;;;;;19809065;29;20149;-58
2022/04/16 16:41:26;;;;;;;2.58;1.70;;;10.30;99.90;;;;;;19869274;29;20043;-53
2022/04/16 16:51:28;;;;;;;2.28;1.55;;;10.20;99.90;;;;;;19876621;29;20066;-51
2022/04/16 17:01:31;;;;;;;2.65;1.70;;;10.00;99.90;;;;;;19801097;29;20478;-50
2022/04/16 17:11:34;;;;;;;5.53;1.63;;;9.80;99.90;;;;;;19828682;29;20043;-57
2022/04/16 17:21:37;;;;;;;3.45;1.60;;;9.40;98.50;;;;;;19826218;29;20107;-52
2022/04/16 17:31:40;;;;;;;3.33;1.65;;;8.70;99.00;;;;;;19840199;29;20062;-51
2022/04/16 17:42:06;;;;;;;2.92;1.90;;;7.90;99.90;;;;;;19798998;29;20265;-50
2022/04/16 17:52:07;;;;;;;2.97;2.03;;;7.20;99.90;;;;;;19822959;29;20070;-56
2022/04/16 18:02:13;;;;;;;3.83;2.40;;;6.70;99.90;;;;;;19862230;29;20469;-52
2022/04/16 18:12:16;;;;;;;3.08;2.05;;;6.10;99.90;;;;;;19864704;29;20051;-57
2022/04/16 18:22:20;;;;;;;4.57;3.15;;;5.40;99.90;;;;;;19864317;29;20043;-52
2022/04/16 18:32:23;;;;;;;5.18;2.67;;;4.90;99.90;;;;;;19815513;29;20420;-49
2022/04/16 18:42:26;;;;;;;4.03;2.78;;;4.50;99.90;;;;;;19866495;29;20450;-56
2022/04/16 18:52:33;;;;;;;4.68;2.85;;;4.20;99.90;;;;;;19826820;29;20061;-48
2022/04/16 19:12:59;;;;;;;2.55;1.52;;;4.10;99.90;;;;;;19855677;29;20074;-50
2022/04/16 19:23:14;;;;;;;3.03;1.08;;;4.90;99.90;;;;;;19842981;29;20050;-49
2022/04/16 19:33:18;;;;;;;1.60;0.80;;;5.70;99.90;;;;;;19844409;29;20106;-50
2022/04/16 19:43:21;;;;;;;1.75;0.70;;;5.70;99.20;;;;;;19866273;29;20207;-48
2022/04/16 19:53:26;;;;;;;1.08;0.57;;;5.60;98.40;;;;;;19858413;29;20043;-51
2022/04/16 20:03:32;;;;;;;1.40;0.43;;;5.80;95.10;;;;;;19805461;29;20085;-51
2022/04/16 20:13:36;;;;;;;0.52;0.30;;;5.80;93.20;;;;;;19823312;29;20043;-55
2022/04/16 20:23:39;;;;;;;2.22;0.40;;;5.30;92.30;;;;;;19888774;29;20086;-47
2022/04/16 20:33:43;;;;;;;2.35;0.30;;;5.10;91.60;;;;;;19854120;29;20086;-51
2022/04/16 20:54:08;;;;;;;0.60;0.30;;;4.50;90.20;;;;;;19852628;29;20566;-47
2022/04/16 21:04:12;;;;;;;0.38;0.20;;;5.10;86.50;;;;;;19821801;29;20091;-49
2022/04/16 21:14:15;;;;;;;0.40;0.20;;;5.70;81.30;;;;;;19857624;29;20572;-49
2022/04/16 21:24:19;;;;;;;0.50;0.40;;;5.90;78.80;;;;;;19871085;29;20254;-51
2022/04/16 21:34:23;;;;;;;1.50;0.20;;;6.10;77.90;;;;;;19841155;29;20047;-50
2022/04/16 21:44:28;;;;;;;0.43;0.10;;;5.70;79.50;;;;;;19828989;29;20070;-49
2022/04/16 21:54:31;;;;;;;1.80;0.10;;;5.90;78.70;;;;;;19803296;29;20051;-49
2022/04/16 22:04:34;;;;;;;0.85;0.28;;;5.60;79.40;;;;;;19827361;29;20051;-51
2022/04/16 22:14:37;;;;;;;0.13;0.10;;;5.20;81.50;;;;;;19872531;29;20119;-48
2022/04/16 22:24:39;;;;;;;0.63;0.20;;;4.80;83.50;;;;;;19842798;29;20077;-51
2022/04/16 22:34:43;;;;;;;0.25;0.13;;;4.60;81.40;;;;;;19797103;29;20073;-50
2022/04/16 22:44:45;;;;;;;1.85;0.20;;;4.80;81.90;;;;;;19809660;29;20422;-48
2022/04/16 22:54:49;;;;;;;0.28;0.20;;;4.50;81.90;;;;;;19860150;29;20402;-48
2022/04/16 23:04:51;;;;;;;0.20;0.10;;;4.70;80.30;;;;;;19831512;29;20599;-51
2022/04/16 23:25:15;;;;;;;0.20;0.17;;;4.80;77.30;;;;;;19865148;29;20104;-56
2022/04/16 23:35:19;;;;;;;0.55;0.20;;;4.80;75.90;;;;;;19882635;29;20134;-51
2022/04/16 23:55:48;;;;;;;0.70;0.13;;;4.50;75.50;;;;;;19831672;29;20115;-51
